createdAt,value
2018-11-22T00:03:50.274Z,21.87
2018-11-22T00:08:26.649Z,20.00
2018-11-22T00:13:03.091Z,20.52
2018-11-22T00:17:40.549Z,20.83
2018-11-22T00:22:16.944Z,21.35
2018-11-22T00:26:53.329Z,19.03
2018-11-22T00:31:29.729Z,19.73
2018-11-22T00:36:06.785Z,19.27
2018-11-22T00:40:43.170Z,21.33
2018-11-22T00:45:21.181Z,18.02
2018-11-22T00:49:57.573Z,18.05
2018-11-22T00:54:33.949Z,19.00
2018-11-22T00:59:10.359Z,17.20
2018-11-22T01:03:46.730Z,18.42
2018-11-22T01:08:23.130Z,16.73
2018-11-22T01:13:00.866Z,15.90
2018-11-22T01:17:37.259Z,16.00
2018-11-22T01:22:13.636Z,14.68
2018-11-22T01:26:50.040Z,16.67
2018-11-22T01:31:26.439Z,15.75
2018-11-22T01:36:02.845Z,16.05
2018-11-22T01:40:39.317Z,20.52
2018-11-22T01:45:17.614Z,20.90
2018-11-22T01:49:54.022Z,21.57
2018-11-22T01:54:30.433Z,22.73
2018-11-22T01:59:07.275Z,20.57
2018-11-22T02:03:43.669Z,20.23
2018-11-22T02:08:20.053Z,21.30
2018-11-22T02:12:56.461Z,20.63
2018-11-22T02:17:33.187Z,20.43
2018-11-22T02:22:09.594Z,22.20
2018-11-22T02:26:46.007Z,19.48
2018-11-22T02:31:22.425Z,20.27
2018-11-22T02:35:58.836Z,21.77
2018-11-22T02:40:35.241Z,20.15
2018-11-22T02:45:13.589Z,20.08
2018-11-22T02:49:49.982Z,20.33
2018-11-22T02:54:26.402Z,19.65
2018-11-22T02:59:03.165Z,20.17
2018-11-22T03:03:39.545Z,18.87
2018-11-22T03:08:15.992Z,19.12
2018-11-22T03:12:52.377Z,16.93
2018-11-22T03:17:28.789Z,17.00
2018-11-22T03:22:05.253Z,16.45
2018-11-22T03:26:41.653Z,15.98
2018-11-22T03:31:18.052Z,15.72
2018-11-22T03:35:54.489Z,16.62
2018-11-22T03:40:30.869Z,15.18
2018-11-22T03:45:08.707Z,15.23
2018-11-22T03:49:45.105Z,15.13
2018-11-22T03:54:21.513Z,14.83
2018-11-22T03:58:58.255Z,15.25
2018-11-22T04:03:34.657Z,14.93
2018-11-22T04:08:11.037Z,16.62
2018-11-22T04:12:47.466Z,16.52
2018-11-22T04:17:23.846Z,16.62
2018-11-22T04:22:00.238Z,16.32
2018-11-22T04:26:36.633Z,17.27
2018-11-22T04:31:13.034Z,18.67
2018-11-22T04:35:49.623Z,20.12
2018-11-22T04:40:27.825Z,20.45
2018-11-22T04:45:04.220Z,21.77
2018-11-22T04:49:41.180Z,18.90
2018-11-22T04:54:17.599Z,19.73
2018-11-22T04:58:54.545Z,18.85
2018-11-22T05:03:31.228Z,21.33
2018-11-22T05:08:07.672Z,19.40
2018-11-22T05:12:44.781Z,18.65
2018-11-22T05:17:21.192Z,20.43
2018-11-22T05:21:57.585Z,21.95
2018-11-22T05:26:33.998Z,20.17
2018-11-22T05:31:10.377Z,20.17
2018-11-22T05:35:46.785Z,22.30
2018-11-22T05:40:24.909Z,20.40
2018-11-22T05:45:01.325Z,19.33
2018-11-22T05:49:37.696Z,20.70
2018-11-22T05:54:14.085Z,22.40
2018-11-22T05:58:50.464Z,22.30
2018-11-22T06:03:26.902Z,22.33
2018-11-22T06:08:03.514Z,22.47
2018-11-22T06:12:40.736Z,21.02
2018-11-22T06:17:17.113Z,20.62
2018-11-22T06:21:53.529Z,22.80
2018-11-22T06:26:29.910Z,24.87
2018-11-22T06:31:06.753Z,23.53
2018-11-22T06:35:43.172Z,23.60
2018-11-22T06:40:20.228Z,22.67
2018-11-22T06:44:57.093Z,20.97
2018-11-22T06:49:33.506Z,23.87
2018-11-22T06:54:09.903Z,22.70
2018-11-22T06:58:46.298Z,23.23
2018-11-22T07:03:22.685Z,23.10
2018-11-22T07:08:00.578Z,22.13
2018-11-22T07:12:36.953Z,21.20
2018-11-22T07:17:14.037Z,22.10
2018-11-22T07:21:50.149Z,22.32
2018-11-22T07:26:26.641Z,23.23
2018-11-22T07:31:03.091Z,29.37
2018-11-22T07:35:40.061Z,23.38
2018-11-22T07:40:22.662Z,20.45
2018-11-22T07:44:59.223Z,23.32
2018-11-22T07:49:35.738Z,32.78
2018-11-22T07:54:12.132Z,30.63
2018-11-22T07:58:48.584Z,28.93
2018-11-22T08:03:25.009Z,26.80
2018-11-22T08:08:01.412Z,24.73
2018-11-22T08:12:38.755Z,24.70
2018-11-22T08:17:15.521Z,24.05
2018-11-22T08:21:51.945Z,28.07
2018-11-22T08:26:28.360Z,33.00
2018-11-22T08:31:04.823Z,28.30
2018-11-22T08:35:41.215Z,26.33
2018-11-22T08:40:22.521Z,24.45
2018-11-22T08:45:00.815Z,26.65
2018-11-22T08:49:37.373Z,22.57
2018-11-22T08:54:14.125Z,24.50
2018-11-22T08:58:52.070Z,24.63
2018-11-22T09:03:29.357Z,25.05
2018-11-22T09:08:06.247Z,23.90
2018-11-22T09:12:42.667Z,25.23
2018-11-22T09:17:19.102Z,27.43
2018-11-22T09:21:55.505Z,29.00
2018-11-22T09:26:32.008Z,27.48
2018-11-22T09:31:08.649Z,24.80
2018-11-22T09:35:45.169Z,27.23
2018-11-22T09:40:23.266Z,28.33
2018-11-22T09:44:59.667Z,27.98
2018-11-22T09:49:36.055Z,26.37
2018-11-22T09:54:12.498Z,26.25
2018-11-22T09:58:48.909Z,25.12
2018-11-22T10:03:25.640Z,27.13
2018-11-22T10:08:02.019Z,26.70
2018-11-22T10:12:38.944Z,25.52
2018-11-22T10:17:15.622Z,27.93
2018-11-22T10:21:52.059Z,24.90
2018-11-22T10:26:28.459Z,27.07
2018-11-22T10:31:05.085Z,25.32
2018-11-22T10:35:41.471Z,24.27
2018-11-22T10:40:22.331Z,25.57
2018-11-22T10:44:58.724Z,23.38
2018-11-22T10:49:35.174Z,23.00
2018-11-22T10:54:11.554Z,26.33
2018-11-22T10:58:48.004Z,23.57
2018-11-22T11:03:41.735Z,22.75
2018-11-22T11:08:20.188Z,22.85
2018-11-22T11:12:56.577Z,22.48
2018-11-22T11:17:33.012Z,21.95
2018-11-22T11:22:09.413Z,22.40
2018-11-22T11:26:45.849Z,22.25
2018-11-22T11:31:22.261Z,21.48
2018-11-22T11:35:58.676Z,22.98
2018-11-22T11:40:36.977Z,20.92
2018-11-22T11:45:13.382Z,19.87
2018-11-22T11:49:49.776Z,21.25
2018-11-22T11:54:26.173Z,19.98
2018-11-22T11:59:02.580Z,19.45
2018-11-22T12:03:39.196Z,21.95
2018-11-22T12:08:15.569Z,22.05
2018-11-22T12:12:52.124Z,18.92
2018-11-22T12:17:28.505Z,20.40
2018-11-22T12:22:04.902Z,20.55
2018-11-22T12:26:41.332Z,19.00
2018-11-22T12:31:17.742Z,22.58
2018-11-22T12:36:11.898Z,21.00
2018-11-22T12:40:48.357Z,23.05
2018-11-22T12:45:25.153Z,22.00
2018-11-22T12:50:02.552Z,21.90
2018-11-22T12:54:40.532Z,24.50
2018-11-22T12:59:17.018Z,20.57
2018-11-22T13:03:53.449Z,20.35
2018-11-22T13:08:29.875Z,20.90
2018-11-22T13:13:06.780Z,20.25
2018-11-22T13:17:43.180Z,20.25
2018-11-22T13:22:19.554Z,20.12
2018-11-22T13:26:56.097Z,19.23
2018-11-22T13:31:32.489Z,19.57
2018-11-22T13:36:08.892Z,18.95
2018-11-22T13:40:45.287Z,19.15
2018-11-22T13:45:24.912Z,18.57
2018-11-22T13:50:01.303Z,22.35
2018-11-22T13:54:37.695Z,21.70
2018-11-22T13:59:14.120Z,22.52
2018-11-22T14:03:50.533Z,20.95
2018-11-22T14:08:27.027Z,21.48
2018-11-22T14:13:03.441Z,22.02
2018-11-22T14:17:40.268Z,22.73
2018-11-22T14:22:16.672Z,22.95
2018-11-22T14:26:53.045Z,23.05
2018-11-22T14:31:29.442Z,24.85
2018-11-22T14:36:05.812Z,23.57
2018-11-22T14:40:42.235Z,22.95
2018-11-22T14:45:18.601Z,23.07
2018-11-22T14:49:54.999Z,22.10
2018-11-22T14:54:31.383Z,23.07
2018-11-22T14:59:07.789Z,25.20
2018-11-22T15:03:44.172Z,21.55
2018-11-22T15:08:20.575Z,21.20
2018-11-22T15:12:56.957Z,22.60
2018-11-22T15:17:33.747Z,22.62
2018-11-22T15:22:10.144Z,24.98
2018-11-22T15:26:46.585Z,26.65
2018-11-22T15:31:23.004Z,24.92
2018-11-22T15:35:59.474Z,23.50
2018-11-22T15:40:35.875Z,22.52
2018-11-22T15:45:14.371Z,23.22
2018-11-22T15:49:51.645Z,23.20
2018-11-22T15:54:28.224Z,32.83
2018-11-22T15:59:04.614Z,24.02
2018-11-22T16:03:41.127Z,24.12
2018-11-22T16:08:17.523Z,25.40
2018-11-22T16:12:58.800Z,25.00
2018-11-22T16:17:35.180Z,22.98
2018-11-22T16:22:11.593Z,25.08
2018-11-22T16:26:47.990Z,25.27
2018-11-22T16:31:24.375Z,24.10
2018-11-22T16:36:00.752Z,23.02
2018-11-22T16:40:37.185Z,24.98
2018-11-22T16:45:31.430Z,23.70
2018-11-22T16:50:09.368Z,21.80
2018-11-22T16:54:45.737Z,21.65
2018-11-22T16:59:22.124Z,27.62
2018-11-22T17:03:58.496Z,21.45
2018-11-22T17:08:34.892Z,21.57
2018-11-22T17:13:12.075Z,26.70
2018-11-22T17:17:49.213Z,22.37
2018-11-22T17:22:25.584Z,21.23
2018-11-22T17:27:01.980Z,21.65
2018-11-22T17:31:38.354Z,20.35
2018-11-22T17:36:14.747Z,20.32
2018-11-22T17:40:52.284Z,24.30
2018-11-22T17:45:30.428Z,23.40
2018-11-22T17:50:08.848Z,25.10
2018-11-22T17:54:45.249Z,22.45
2018-11-22T17:59:22.303Z,30.00
2018-11-22T18:03:58.703Z,30.37
2018-11-22T18:08:35.067Z,28.77
2018-11-22T18:13:11.473Z,32.13
2018-11-22T18:17:48.667Z,26.45
2018-11-22T18:22:25.283Z,23.93
2018-11-22T18:27:01.661Z,21.37
2018-11-22T18:31:38.077Z,21.50
2018-11-22T18:36:14.453Z,21.52
2018-11-22T18:40:50.872Z,19.70
2018-11-22T18:45:44.967Z,17.15
2018-11-22T18:50:22.877Z,18.17
2018-11-22T18:54:59.261Z,18.85
2018-11-22T18:59:35.669Z,23.22
2018-11-22T19:04:12.412Z,23.17
2018-11-22T19:08:48.811Z,21.73
2018-11-22T19:13:25.205Z,20.95
2018-11-22T19:18:02.166Z,22.60
2018-11-22T19:22:38.548Z,23.93
2018-11-22T19:27:15.367Z,18.50
2018-11-22T19:31:51.822Z,21.52
2018-11-22T19:36:28.804Z,20.20
2018-11-22T19:41:05.195Z,18.50
2018-11-22T19:45:43.530Z,20.65
2018-11-22T19:50:21.824Z,20.43
2018-11-22T19:54:58.793Z,23.98
2018-11-22T19:59:35.812Z,19.50
2018-11-22T20:04:14.776Z,21.10
2018-11-22T20:08:51.689Z,19.07
2018-11-22T20:18:12.607Z,22.13
2018-11-22T20:22:48.992Z,21.20
2018-11-22T20:27:25.382Z,20.90
2018-11-22T20:32:01.788Z,20.35
2018-11-22T20:36:38.688Z,17.12
2018-11-22T20:41:15.157Z,16.90
2018-11-22T20:45:51.539Z,17.40
2018-11-22T20:50:28.747Z,18.00
2018-11-22T20:55:05.597Z,15.00
2018-11-22T20:59:41.998Z,15.10
2018-11-22T21:04:18.384Z,16.37
2018-11-22T21:08:54.798Z,17.98
2018-11-22T21:13:31.246Z,18.40
2018-11-22T21:18:09.196Z,18.73
2018-11-22T21:22:45.992Z,18.60
2018-11-22T21:27:22.504Z,15.77
2018-11-22T21:31:58.888Z,17.97
2018-11-22T21:36:38.082Z,39.58
2018-11-22T21:41:14.464Z,30.10
2018-11-22T21:45:50.848Z,23.98
2018-11-22T21:50:28.377Z,19.13
2018-11-22T21:55:04.789Z,16.02
2018-11-22T21:59:41.180Z,16.35
2018-11-22T22:04:17.576Z,13.03
2018-11-22T22:08:53.985Z,12.75
2018-11-22T22:13:30.384Z,12.70
2018-11-22T22:18:08.195Z,12.37
2018-11-22T22:22:44.596Z,11.05
2018-11-22T22:27:20.981Z,18.77
2018-11-22T22:31:58.176Z,19.92
2018-11-22T22:36:34.563Z,17.30
2018-11-22T22:41:10.948Z,18.07
2018-11-22T22:45:47.329Z,21.00
2018-11-22T22:50:25.317Z,22.00
2018-11-22T22:55:01.696Z,21.73
2018-11-22T22:59:38.075Z,20.30
2018-11-22T23:04:14.457Z,20.33
2018-11-22T23:08:50.848Z,19.23
2018-11-22T23:13:27.288Z,21.10
2018-11-22T23:18:03.734Z,23.97
2018-11-22T23:22:40.864Z,24.93
2018-11-22T23:27:17.250Z,20.93
2018-11-22T23:31:54.033Z,23.20
2018-11-22T23:36:30.424Z,30.43
2018-11-22T23:41:07.230Z,22.63
2018-11-22T23:45:43.629Z,23.90
2018-11-22T23:50:30.542Z,24.45
2018-11-22T23:55:07.924Z,27.23
2018-11-22T23:59:44.296Z,21.33
